createdAt,value
2018-07-05T00:00:17.047Z,8.33
2018-07-05T00:01:13.736Z,8.95
2018-07-05T00:02:10.214Z,9.35
2018-07-05T00:03:06.947Z,9.05
2018-07-05T00:04:03.602Z,8.53
2018-07-05T00:05:00.367Z,7.65
2018-07-05T00:05:56.919Z,8.33
2018-07-05T00:06:53.648Z,7.60
2018-07-05T00:19:14.917Z,8.43
2018-07-05T00:20:11.373Z,9.15
2018-07-05T00:21:08.583Z,8.35
2018-07-05T00:22:05.137Z,8.38
2018-07-05T00:38:21.830Z,9.40
2018-07-05T00:39:18.485Z,8.43
2018-07-05T00:40:15.035Z,9.15
2018-07-05T00:41:11.711Z,9.18
2018-07-05T00:42:08.246Z,9.73
2018-07-05T00:43:04.970Z,8.90
2018-07-05T00:44:01.589Z,9.88
2018-07-05T00:44:58.363Z,9.15
2018-07-05T00:45:54.907Z,8.10
2018-07-05T00:46:51.503Z,9.10
2018-07-05T00:47:47.891Z,9.23
2018-07-05T00:48:44.655Z,9.78
2018-07-05T00:49:41.197Z,11.08
2018-07-05T00:50:37.800Z,10.13
2018-07-05T01:01:24.552Z,9.58
2018-07-05T01:02:21.162Z,9.53
2018-07-05T01:03:17.680Z,9.83
2018-07-05T01:04:14.437Z,9.78
2018-07-05T01:05:11.183Z,9.88
2018-07-05T01:06:07.821Z,10.00
2018-07-05T01:07:04.363Z,9.78
2018-07-05T01:18:05.672Z,11.63
2018-07-05T01:19:01.963Z,11.80
2018-07-05T01:19:58.658Z,11.70
2018-07-05T01:20:55.318Z,12.30
2018-07-05T01:21:52.030Z,11.40
2018-07-05T01:22:48.672Z,11.70
2018-07-05T01:37:27.984Z,11.28
2018-07-05T01:57:25.249Z,12.13
2018-07-05T01:58:21.979Z,11.35
2018-07-05T01:59:18.410Z,10.95
2018-07-05T02:00:15.051Z,10.98
2018-07-05T02:01:11.651Z,11.10
2018-07-05T02:02:08.187Z,11.28
2018-07-05T02:03:04.791Z,11.90
2018-07-05T02:04:01.453Z,11.33
2018-07-05T02:04:58.081Z,10.78
2018-07-05T02:05:54.709Z,10.32
2018-07-05T02:06:51.377Z,11.20
2018-07-05T02:07:48.072Z,11.30
2018-07-05T02:16:33.644Z,10.85
2018-07-05T02:17:30.436Z,9.90
2018-07-05T02:18:27.034Z,10.55
2018-07-05T02:19:23.737Z,11.45
2018-07-05T02:20:20.239Z,10.55
2018-07-05T02:21:16.943Z,10.35
2018-07-05T02:22:13.226Z,10.93
2018-07-05T02:23:09.719Z,10.82
2018-07-05T02:35:50.676Z,10.48
2018-07-05T02:36:47.338Z,10.53
2018-07-05T02:37:49.763Z,10.43
2018-07-05T02:55:46.135Z,10.63
2018-07-05T02:56:42.687Z,9.68
2018-07-05T02:57:39.275Z,10.80
2018-07-05T02:58:35.805Z,10.28
2018-07-05T02:59:32.334Z,10.48
2018-07-05T03:00:28.814Z,10.40
2018-07-05T03:01:25.267Z,10.48
2018-07-05T03:02:21.866Z,9.88
2018-07-05T03:03:18.429Z,9.75
2018-07-05T03:04:15.318Z,9.83
2018-07-05T03:05:12.072Z,10.68
2018-07-05T03:06:08.540Z,10.25
2018-07-05T03:07:05.200Z,10.53
2018-07-05T03:08:01.885Z,10.43
2018-07-05T03:26:06.432Z,11.28
2018-07-05T03:27:02.752Z,11.20
2018-07-05T03:27:59.477Z,11.38
2018-07-05T03:28:56.203Z,11.30
2018-07-05T03:29:52.751Z,11.60
2018-07-05T03:30:49.556Z,11.88
2018-07-05T03:31:46.164Z,11.78
2018-07-05T03:32:42.847Z,12.00
2018-07-05T03:33:39.383Z,11.95
2018-07-05T03:34:36.197Z,11.35
2018-07-05T03:35:32.759Z,12.73
2018-07-05T03:36:29.533Z,11.63
2018-07-05T03:37:25.789Z,12.60
2018-07-05T03:38:22.254Z,11.97
2018-07-05T03:45:20.377Z,11.30
2018-07-05T03:46:16.943Z,11.97
2018-07-05T03:47:13.671Z,10.90
2018-07-05T03:48:10.175Z,11.83
2018-07-05T03:49:06.985Z,12.47
2018-07-05T03:50:03.453Z,11.95
2018-07-05T03:51:00.217Z,12.50
2018-07-05T03:51:56.781Z,12.47
2018-07-05T03:52:53.333Z,12.40
2018-07-05T03:53:49.953Z,12.23
2018-07-05T04:04:36.792Z,10.40
2018-07-05T04:05:33.351Z,11.70
2018-07-05T04:06:29.755Z,11.33
2018-07-05T04:07:26.113Z,11.48
2018-07-05T04:08:22.838Z,10.32
2018-07-05T04:24:17.491Z,11.55
2018-07-05T04:43:13.731Z,10.75
2018-07-05T04:44:10.501Z,10.40
2018-07-05T04:45:07.230Z,10.50
2018-07-05T04:46:03.846Z,10.48
2018-07-05T04:47:00.340Z,9.70
2018-07-05T04:47:56.893Z,9.85
2018-07-05T04:48:53.397Z,9.23
2018-07-05T04:49:49.884Z,8.38
2018-07-05T04:50:46.544Z,8.43
2018-07-05T04:51:43.162Z,9.75
2018-07-05T04:52:39.869Z,9.00
2018-07-05T04:53:36.308Z,7.65
2018-07-05T04:54:32.706Z,7.97
2018-07-05T05:03:08.128Z,7.35
2018-07-05T05:04:04.759Z,7.35
2018-07-05T05:05:01.455Z,7.75
2018-07-05T05:05:58.007Z,6.90
2018-07-05T05:06:54.552Z,6.67
2018-07-05T05:07:54.272Z,6.35
2018-07-05T05:08:50.920Z,6.10
2018-07-05T05:22:33.810Z,5.90
2018-07-05T05:23:30.330Z,6.75
2018-07-05T05:24:26.930Z,6.43
2018-07-05T05:41:27.031Z,4.80
2018-07-05T05:42:23.245Z,4.58
2018-07-05T05:43:19.426Z,4.45
2018-07-05T05:44:15.907Z,4.23
2018-07-05T05:45:12.622Z,3.77
2018-07-05T05:46:09.232Z,3.30
2018-07-05T05:47:05.702Z,3.10
2018-07-05T05:48:02.211Z,3.17
2018-07-05T05:48:58.866Z,3.17
2018-07-05T05:49:55.534Z,3.00
2018-07-05T05:50:52.070Z,3.33
2018-07-05T05:51:48.584Z,2.98
2018-07-05T05:52:45.190Z,3.27
2018-07-05T05:53:41.806Z,3.30
2018-07-05T05:54:38.334Z,2.62
2018-07-05T06:01:20.254Z,2.67
2018-07-05T06:02:16.922Z,2.62
2018-07-05T06:03:13.448Z,3.02
2018-07-05T06:04:09.996Z,2.83
2018-07-05T06:05:06.528Z,2.92
2018-07-05T06:06:03.069Z,2.62
2018-07-05T06:06:59.568Z,3.05
2018-07-05T06:07:56.183Z,3.30
2018-07-05T06:08:52.643Z,3.30
2018-07-05T06:09:49.072Z,3.15
2018-07-05T06:20:28.506Z,3.58
2018-07-05T06:21:24.790Z,4.05
2018-07-05T06:22:21.462Z,4.55
2018-07-05T06:23:18.126Z,3.90
2018-07-05T06:24:14.563Z,3.33
2018-07-05T06:40:05.809Z,2.98
2018-07-05T06:59:00.274Z,2.90
2018-07-05T06:59:56.867Z,3.17
2018-07-05T07:00:53.580Z,3.17
2018-07-05T07:01:50.199Z,3.27
2018-07-05T07:02:46.689Z,3.60
2018-07-05T07:03:43.006Z,3.60
2018-07-05T07:04:39.502Z,3.70
2018-07-05T07:05:36.237Z,3.83
2018-07-05T07:06:32.841Z,3.52
2018-07-05T07:07:29.352Z,3.55
2018-07-05T07:08:25.990Z,3.12
2018-07-05T07:09:22.410Z,3.52
2018-07-05T07:19:06.766Z,3.65
2018-07-05T07:20:03.335Z,3.25
2018-07-05T07:20:59.880Z,4.05
2018-07-05T07:21:56.506Z,3.87
2018-07-05T07:22:53.333Z,3.30
2018-07-05T07:23:49.990Z,2.98
2018-07-05T07:24:46.614Z,3.35
2018-07-05T07:38:59.237Z,2.75
2018-07-05T07:39:55.806Z,2.85
2018-07-05T07:57:46.706Z,2.80
2018-07-05T07:58:18.265Z,3.05
2018-07-05T07:58:49.698Z,3.10
2018-07-05T07:59:21.190Z,3.08
2018-07-05T07:59:52.698Z,2.85
2018-07-05T08:00:24.214Z,2.83
2018-07-05T08:00:55.700Z,2.50
2018-07-05T08:01:27.330Z,2.45
2018-07-05T08:01:58.823Z,2.72
2018-07-05T08:02:30.332Z,2.40
2018-07-05T08:03:01.810Z,3.05
2018-07-05T08:03:33.298Z,2.90
2018-07-05T08:04:04.780Z,2.95
2018-07-05T08:04:36.238Z,3.22
2018-07-05T08:05:07.697Z,2.75
2018-07-05T08:05:39.188Z,2.85
2018-07-05T08:06:10.638Z,3.02
2018-07-05T08:06:42.136Z,2.50
2018-07-05T08:07:14.048Z,2.55
2018-07-05T08:07:45.512Z,2.85
2018-07-05T08:08:17.059Z,2.58
2018-07-05T08:08:48.430Z,2.52
2018-07-05T08:09:19.918Z,2.55
2018-07-05T08:09:51.481Z,2.55
2018-07-05T08:10:22.964Z,2.55
2018-07-05T08:17:03.672Z,2.42
2018-07-05T08:17:35.164Z,2.60
2018-07-05T08:18:06.657Z,2.10
2018-07-05T08:18:38.122Z,2.37
2018-07-05T08:19:09.612Z,2.22
2018-07-05T08:19:41.098Z,2.37
2018-07-05T08:20:12.582Z,2.58
2018-07-05T08:20:44.064Z,2.30
2018-07-05T08:21:15.652Z,2.55
2018-07-05T08:21:47.122Z,2.20
2018-07-05T08:22:18.578Z,2.40
2018-07-05T08:22:50.052Z,2.12
2018-07-05T08:23:21.524Z,2.30
2018-07-05T08:23:53.010Z,2.25
2018-07-05T08:24:24.498Z,2.08
2018-07-05T08:24:55.970Z,2.27
2018-07-05T08:25:27.466Z,2.20
2018-07-05T08:36:24.728Z,2.20
2018-07-05T08:36:56.194Z,2.10
2018-07-05T08:37:27.678Z,1.92
2018-07-05T08:37:59.190Z,2.25
2018-07-05T08:38:30.669Z,2.20
2018-07-05T08:39:02.188Z,2.00
2018-07-05T08:39:33.675Z,2.22
2018-07-05T08:40:05.154Z,2.42
2018-07-05T08:40:36.635Z,2.20
2018-07-05T09:15:19.494Z,2.87
2018-07-05T09:15:50.975Z,2.95
2018-07-05T09:16:22.460Z,2.98
2018-07-05T09:16:53.929Z,3.00
2018-07-05T09:17:25.461Z,2.70
2018-07-05T09:17:57.104Z,3.00
2018-07-05T09:18:28.538Z,2.80
2018-07-05T09:18:59.923Z,2.70
2018-07-05T09:19:31.384Z,3.10
2018-07-05T09:20:02.844Z,2.85
2018-07-05T09:20:34.326Z,2.77
2018-07-05T09:21:05.794Z,2.70
2018-07-05T09:21:37.264Z,3.20
2018-07-05T09:22:08.721Z,2.90
2018-07-05T09:22:40.180Z,2.92
2018-07-05T09:23:11.707Z,2.60
2018-07-05T09:23:43.347Z,2.75
2018-07-05T09:24:14.766Z,2.80
2018-07-05T09:24:46.254Z,2.90
2018-07-05T09:25:17.738Z,2.80
2018-07-05T09:25:49.263Z,2.92
2018-07-05T09:34:35.924Z,2.40
2018-07-05T09:35:07.402Z,2.70
2018-07-05T09:35:38.864Z,2.27
2018-07-05T09:36:10.332Z,2.12
2018-07-05T09:36:41.788Z,2.25
2018-07-05T09:37:13.349Z,2.37
2018-07-05T09:37:44.990Z,2.20
2018-07-05T09:38:16.548Z,2.35
2018-07-05T09:38:48.127Z,2.30
2018-07-05T09:39:19.564Z,2.30
2018-07-05T09:39:51.037Z,2.17
2018-07-05T09:40:22.520Z,2.30
2018-07-05T09:40:53.982Z,2.05
2018-07-05T09:53:49.006Z,2.05
2018-07-05T09:54:20.478Z,1.92
2018-07-05T09:54:51.968Z,2.05
2018-07-05T09:55:23.444Z,1.80
2018-07-05T09:55:54.902Z,2.10
2018-07-05T10:13:33.113Z,1.85
2018-07-05T10:14:04.400Z,1.80
2018-07-05T10:14:35.885Z,1.72
2018-07-05T10:15:07.366Z,1.62
2018-07-05T10:15:38.900Z,1.70
2018-07-05T10:16:10.362Z,1.90
2018-07-05T10:16:41.838Z,1.80
2018-07-05T10:17:13.302Z,1.70
2018-07-05T10:17:44.978Z,1.52
2018-07-05T10:18:16.445Z,1.82
2018-07-05T10:18:47.910Z,1.67
2018-07-05T10:19:19.406Z,1.70
2018-07-05T10:19:50.850Z,1.70
2018-07-05T10:20:22.560Z,1.92
2018-07-05T10:20:54.030Z,1.90
2018-07-05T10:21:25.510Z,2.17
2018-07-05T10:21:56.981Z,1.90
2018-07-05T10:22:28.440Z,1.52
2018-07-05T10:22:59.918Z,1.90
2018-07-05T10:23:31.382Z,1.98
2018-07-05T10:24:02.866Z,2.00
2018-07-05T10:24:34.345Z,2.10
2018-07-05T10:25:05.820Z,1.98
2018-07-05T10:25:37.306Z,1.80
2018-07-05T10:26:08.785Z,1.82
2018-07-05T10:32:42.348Z,1.92
2018-07-05T10:33:38.810Z,1.92
2018-07-05T10:34:14.212Z,1.85
2018-07-05T10:34:45.712Z,1.80
2018-07-05T10:35:17.266Z,1.90
2018-07-05T10:35:48.746Z,1.87
2018-07-05T10:36:20.238Z,2.12
2018-07-05T10:36:51.742Z,2.00
2018-07-05T10:37:24.214Z,1.60
2018-07-05T10:37:58.618Z,1.90
2018-07-05T10:38:30.078Z,1.60
2018-07-05T10:39:01.564Z,1.98
2018-07-05T10:39:33.031Z,1.70
2018-07-05T10:40:23.264Z,1.80
2018-07-05T10:52:04.838Z,2.08
2018-07-05T10:53:01.338Z,2.00
2018-07-05T10:53:57.817Z,2.20
2018-07-05T10:54:54.386Z,1.98
2018-07-05T10:55:51.014Z,1.82
2018-07-05T11:30:57.658Z,2.10
2018-07-05T11:31:54.440Z,2.20
2018-07-05T11:32:50.850Z,2.50
2018-07-05T11:33:47.452Z,2.65
2018-07-05T11:34:44.178Z,2.67
2018-07-05T11:35:40.854Z,2.47
2018-07-05T11:36:37.266Z,2.50
2018-07-05T11:37:33.698Z,2.40
2018-07-05T11:38:30.019Z,2.40
2018-07-05T11:39:26.569Z,2.10
2018-07-05T11:40:23.168Z,2.45
2018-07-05T11:41:19.804Z,2.20
2018-07-05T11:50:03.155Z,1.85
2018-07-05T11:50:59.669Z,2.27
2018-07-05T11:51:56.390Z,2.08
2018-07-05T11:52:53.086Z,2.00
2018-07-05T11:53:49.598Z,2.27
2018-07-05T11:54:46.377Z,2.35
2018-07-05T11:55:42.622Z,2.10
2018-07-05T11:56:39.152Z,2.15
2018-07-05T12:09:19.236Z,2.00
2018-07-05T12:10:15.769Z,2.10
2018-07-05T12:11:12.461Z,2.10
2018-07-05T12:28:42.076Z,2.08
2018-07-05T12:29:38.913Z,2.40
2018-07-05T12:30:35.561Z,2.15
2018-07-05T12:31:32.127Z,1.90
2018-07-05T12:32:28.778Z,2.10
2018-07-05T12:33:25.308Z,1.82
2018-07-05T12:34:22.141Z,2.20
2018-07-05T12:35:18.727Z,2.65
2018-07-05T12:36:15.468Z,2.58
2018-07-05T12:37:12.107Z,2.10
2018-07-05T12:38:08.718Z,2.22
2018-07-05T12:39:05.209Z,2.35
2018-07-05T12:40:01.786Z,2.10
2018-07-05T12:40:58.335Z,2.22
2018-07-05T12:41:55.329Z,2.30
2018-07-05T12:48:38.077Z,1.80
2018-07-05T12:49:34.665Z,2.50
2018-07-05T12:50:31.075Z,2.40
2018-07-05T12:51:27.841Z,2.45
2018-07-05T12:52:24.295Z,2.37
2018-07-05T12:53:20.917Z,1.87
2018-07-05T12:54:17.551Z,1.80
2018-07-05T12:55:14.081Z,1.90
2018-07-05T12:56:10.713Z,2.30
2018-07-05T12:57:07.283Z,2.10
2018-07-05T13:07:36.649Z,1.85
2018-07-05T13:08:33.327Z,1.92
2018-07-05T13:09:30.010Z,1.80
2018-07-05T13:10:26.471Z,1.87
2018-07-05T13:11:22.884Z,1.80
2018-07-05T13:12:19.312Z,2.10
2018-07-05T13:26:50.748Z,2.37
2018-07-05T13:27:47.179Z,2.05
2018-07-05T13:46:05.828Z,2.08
2018-07-05T13:47:03.026Z,1.87
2018-07-05T13:47:59.786Z,2.12
2018-07-05T13:48:56.205Z,1.90
2018-07-05T13:49:52.870Z,2.00
2018-07-05T13:50:49.470Z,1.90
2018-07-05T13:51:45.909Z,2.17
2018-07-05T13:52:42.399Z,2.08
2018-07-05T13:53:39.173Z,2.05
2018-07-05T13:54:35.545Z,2.42
2018-07-05T13:55:32.085Z,2.37
2018-07-05T13:56:28.516Z,2.10
2018-07-05T13:57:24.854Z,2.00
2018-07-05T14:05:37.481Z,2.00
2018-07-05T14:06:34.207Z,2.27
2018-07-05T14:07:30.739Z,1.85
2018-07-05T14:08:27.370Z,2.05
2018-07-05T14:09:24.011Z,2.15
2018-07-05T14:10:20.548Z,2.30
2018-07-05T14:11:16.952Z,2.10
2018-07-05T14:12:13.396Z,2.00
2018-07-05T14:13:10.014Z,2.08
2018-07-05T14:24:29.522Z,2.22
2018-07-05T14:25:26.064Z,2.20
2018-07-05T14:26:23.494Z,2.70
2018-07-05T14:27:20.208Z,2.50
2018-07-05T14:28:16.768Z,2.87
2018-07-05T14:44:28.076Z,2.92
2018-07-05T14:45:24.418Z,2.50
2018-07-05T14:46:20.780Z,2.60
2018-07-05T14:47:17.266Z,2.75
2018-07-05T14:48:13.908Z,2.58
2018-07-05T14:49:10.453Z,2.30
2018-07-05T14:50:06.919Z,2.40
2018-07-05T14:51:03.186Z,2.50
2018-07-05T14:51:59.841Z,2.30
2018-07-05T14:52:56.340Z,2.70
2018-07-05T14:53:53.016Z,2.70
2018-07-05T14:54:49.708Z,2.60
2018-07-05T14:55:45.958Z,2.58
2018-07-05T14:56:42.468Z,2.60
2018-07-05T14:57:39.110Z,2.90
2018-07-05T14:58:35.674Z,2.77
2018-07-05T15:03:37.414Z,2.62
2018-07-05T15:04:34.232Z,3.27
2018-07-05T15:05:30.779Z,2.72
2018-07-05T15:06:27.362Z,3.10
2018-07-05T15:07:23.804Z,2.60
2018-07-05T15:08:20.391Z,2.60
2018-07-05T15:09:16.934Z,2.65
2018-07-05T15:10:13.414Z,2.62
2018-07-05T15:11:10.037Z,2.62
2018-07-05T15:12:06.609Z,2.52
2018-07-05T15:13:03.122Z,2.70
2018-07-05T15:13:59.494Z,2.55
2018-07-05T15:17:00.710Z,2.80
2018-07-05T15:17:57.324Z,2.85
2018-07-05T15:18:54.099Z,2.80
2018-07-05T15:19:50.640Z,2.75
2018-07-05T15:20:46.945Z,2.60
2018-07-05T15:21:43.372Z,3.17
2018-07-05T15:22:39.868Z,3.00
2018-07-05T15:23:36.316Z,2.87
2018-07-05T15:24:32.918Z,3.10
2018-07-05T15:25:29.528Z,2.70
2018-07-05T15:26:26.288Z,2.40
2018-07-05T15:27:22.622Z,2.45
2018-07-05T15:28:19.145Z,2.45
2018-07-05T15:36:29.042Z,2.83
2018-07-05T15:37:25.752Z,3.00
2018-07-05T15:38:22.348Z,3.80
2018-07-05T15:39:18.998Z,3.02
2018-07-05T15:40:15.505Z,2.58
2018-07-05T15:41:11.924Z,2.60
2018-07-05T15:42:08.447Z,3.02
2018-07-05T15:43:05.004Z,2.80
2018-07-05T15:44:01.516Z,2.70
2018-07-05T15:56:24.854Z,2.10
2018-07-05T15:57:21.462Z,2.65
2018-07-05T15:58:17.999Z,2.70
2018-07-05T15:59:14.564Z,2.40
2018-07-05T16:15:29.873Z,2.90
2018-07-05T16:16:26.245Z,3.60
2018-07-05T16:17:22.852Z,4.30
2018-07-05T16:18:19.454Z,4.53
2018-07-05T16:19:16.070Z,4.33
2018-07-05T16:20:12.412Z,4.37
2018-07-05T16:21:08.990Z,4.00
2018-07-05T16:22:05.296Z,3.80
2018-07-05T16:23:01.898Z,3.80
2018-07-05T16:23:58.227Z,4.03
2018-07-05T16:24:54.720Z,4.00
2018-07-05T16:25:51.264Z,4.10
2018-07-05T16:26:47.798Z,4.83
2018-07-05T16:27:44.409Z,4.25
2018-07-05T16:28:40.856Z,4.33
2018-07-05T16:29:37.464Z,4.35
2018-07-05T16:34:38.042Z,7.20
2018-07-05T16:35:34.449Z,6.08
2018-07-05T16:36:31.010Z,5.85
2018-07-05T16:37:27.605Z,5.03
2018-07-05T16:38:24.119Z,6.03
2018-07-05T16:39:20.619Z,4.65
2018-07-05T16:40:17.244Z,4.80
2018-07-05T16:41:13.715Z,5.58
2018-07-05T16:42:10.388Z,6.10
2018-07-05T16:43:06.865Z,5.20
2018-07-05T16:44:03.197Z,5.47
2018-07-05T16:54:10.227Z,5.65
2018-07-05T16:55:06.682Z,6.65
2018-07-05T16:56:03.134Z,6.17
2018-07-05T16:56:59.588Z,5.12
2018-07-05T16:57:56.191Z,5.90
2018-07-05T16:58:52.895Z,6.80
2018-07-05T16:59:49.563Z,6.20
2018-07-05T17:13:01.984Z,5.65
2018-07-05T17:13:58.381Z,6.53
2018-07-05T17:14:54.956Z,6.50
2018-07-05T17:33:08.649Z,5.97
2018-07-05T17:34:05.280Z,5.70
2018-07-05T17:35:01.997Z,5.20
2018-07-05T17:35:58.622Z,6.00
2018-07-05T17:36:55.220Z,5.42
2018-07-05T17:37:51.635Z,4.45
2018-07-05T17:38:47.968Z,5.78
2018-07-05T17:39:44.539Z,5.73
2018-07-05T17:40:41.599Z,5.58
2018-07-05T17:41:38.297Z,5.72
2018-07-05T17:42:34.843Z,6.25
2018-07-05T17:43:31.219Z,5.33
2018-07-05T17:44:27.576Z,5.95
2018-07-05T17:51:31.181Z,6.03
2018-07-05T17:52:28.489Z,5.87
2018-07-05T17:53:25.717Z,5.42
2018-07-05T17:54:22.387Z,6.30
2018-07-05T17:55:19.163Z,5.60
2018-07-05T17:56:15.663Z,5.47
2018-07-05T17:57:12.141Z,5.35
2018-07-05T17:58:08.591Z,5.83
2018-07-05T17:59:05.081Z,6.12
2018-07-05T18:11:40.718Z,6.60
2018-07-05T18:12:37.188Z,6.25
2018-07-05T18:13:33.828Z,7.40
2018-07-05T18:14:30.630Z,7.58
2018-07-05T18:15:26.900Z,7.53
2018-07-05T18:30:04.263Z,6.55
2018-07-05T18:49:50.673Z,9.28
2018-07-05T18:50:47.191Z,8.80
2018-07-05T18:51:43.548Z,9.33
2018-07-05T18:52:39.986Z,9.25
2018-07-05T18:53:36.635Z,8.85
2018-07-05T18:54:32.948Z,9.45
2018-07-05T18:55:29.455Z,8.25
2018-07-05T18:56:26.062Z,7.05
2018-07-05T18:57:22.491Z,8.15
2018-07-05T18:58:18.998Z,7.40
2018-07-05T18:59:15.576Z,6.65
2018-07-05T19:00:12.135Z,7.20
2018-07-05T19:08:45.210Z,5.95
2018-07-05T19:09:41.750Z,5.65
2018-07-05T19:10:38.332Z,5.95
2018-07-05T19:11:34.970Z,5.92
2018-07-05T19:12:31.596Z,5.78
2018-07-05T19:13:27.989Z,5.70
2018-07-05T19:14:24.479Z,7.30
2018-07-05T19:15:20.973Z,7.05
2018-07-05T19:27:56.559Z,9.23
2018-07-05T19:28:52.912Z,8.78
2018-07-05T19:29:49.567Z,8.58
2018-07-05T19:30:46.521Z,9.25
2018-07-05T19:47:22.539Z,8.33
2018-07-05T19:48:18.949Z,8.53
2018-07-05T19:49:15.439Z,9.55
2018-07-05T19:50:11.954Z,9.05
2018-07-05T19:51:08.472Z,8.43
2018-07-05T19:52:05.174Z,9.13
2018-07-05T19:53:01.707Z,9.55
2018-07-05T19:53:58.213Z,7.85
2018-07-05T19:54:54.704Z,8.25
2018-07-05T19:55:51.000Z,7.87
2018-07-05T19:56:47.399Z,8.78
2018-07-05T19:57:43.931Z,8.18
2018-07-05T19:58:40.453Z,8.63
2018-07-05T19:59:36.883Z,8.23
2018-07-05T20:00:33.430Z,8.05
2018-07-05T20:01:29.937Z,10.15
2018-07-05T20:06:30.873Z,8.38
2018-07-05T20:07:27.381Z,8.43
2018-07-05T20:08:24.039Z,8.30
2018-07-05T20:09:20.372Z,7.70
2018-07-05T20:10:17.109Z,7.90
2018-07-05T20:11:14.345Z,7.28
2018-07-05T20:12:10.813Z,8.70
2018-07-05T20:13:07.207Z,8.43
2018-07-05T20:14:03.538Z,8.20
2018-07-05T20:14:59.998Z,8.38
2018-07-05T20:15:56.549Z,8.10
2018-07-05T20:25:59.401Z,7.85
2018-07-05T20:26:56.051Z,8.63
2018-07-05T20:27:52.590Z,7.62
2018-07-05T20:28:48.955Z,7.97
2018-07-05T20:29:45.352Z,8.18
2018-07-05T20:30:41.759Z,7.60
2018-07-05T20:31:38.103Z,9.33
2018-07-05T20:45:08.650Z,7.92
2018-07-05T20:46:05.131Z,8.00
2018-07-05T20:47:01.787Z,7.55
2018-07-05T21:05:05.166Z,8.43
2018-07-05T21:06:01.611Z,7.55
2018-07-05T21:06:58.232Z,7.80
2018-07-05T21:07:54.786Z,7.78
2018-07-05T21:08:51.492Z,8.00
2018-07-05T21:09:47.916Z,7.80
2018-07-05T21:10:44.448Z,7.97
2018-07-05T21:11:41.161Z,7.85
2018-07-05T21:23:36.130Z,8.28
2018-07-05T21:24:32.999Z,7.40
2018-07-05T21:25:29.576Z,7.37
2018-07-05T21:26:26.390Z,7.78
2018-07-05T21:27:22.856Z,7.67
2018-07-05T21:28:19.458Z,8.23
2018-07-05T21:29:15.964Z,8.30
2018-07-05T21:30:12.450Z,8.85
2018-07-05T21:31:08.944Z,8.43
2018-07-05T21:32:05.387Z,7.87
2018-07-05T21:43:17.163Z,8.25
2018-07-05T21:44:13.750Z,8.40
2018-07-05T21:45:10.250Z,7.92
2018-07-05T21:46:06.899Z,8.23
2018-07-05T21:47:03.336Z,7.37
2018-07-05T22:23:12.457Z,8.33
2018-07-05T22:25:14.688Z,8.80
2018-07-05T22:26:16.814Z,8.13
2018-07-05T22:27:19.305Z,8.33
2018-07-05T22:28:21.266Z,8.38
2018-07-05T22:29:23.547Z,8.93
2018-07-05T22:31:27.602Z,8.35
2018-07-05T22:32:24.210Z,9.10
2018-07-05T22:41:19.602Z,8.55
2018-07-05T22:42:15.883Z,9.00
2018-07-05T22:43:12.200Z,8.70
2018-07-05T22:44:08.464Z,8.90
2018-07-05T22:45:04.784Z,9.05
2018-07-05T22:46:00.976Z,8.65
2018-07-05T22:46:57.270Z,9.45
2018-07-05T22:47:53.664Z,9.98
2018-07-05T23:00:16.794Z,11.73
2018-07-05T23:01:13.700Z,11.03
2018-07-05T23:02:10.262Z,12.30
2018-07-05T23:03:07.379Z,11.78
2018-07-05T23:20:01.226Z,13.75
2018-07-05T23:20:57.900Z,14.20
2018-07-05T23:21:54.692Z,13.90
2018-07-05T23:22:51.176Z,12.85
2018-07-05T23:23:47.646Z,14.05
2018-07-05T23:24:44.130Z,14.20
2018-07-05T23:25:40.754Z,13.85
2018-07-05T23:26:37.312Z,13.93
2018-07-05T23:27:33.766Z,14.07
2018-07-05T23:28:30.451Z,14.70
2018-07-05T23:29:27.064Z,16.20
2018-07-05T23:30:23.588Z,14.63
2018-07-05T23:31:20.138Z,15.98
2018-07-05T23:32:16.661Z,14.68
2018-07-05T23:33:13.439Z,15.50
2018-07-05T23:39:52.604Z,17.92
2018-07-05T23:40:49.200Z,15.75
2018-07-05T23:41:45.787Z,16.25
2018-07-05T23:42:42.316Z,17.50
2018-07-05T23:43:39.019Z,18.42
2018-07-05T23:44:35.482Z,17.85
2018-07-05T23:45:32.071Z,17.67
2018-07-05T23:46:28.586Z,17.40
2018-07-05T23:47:25.148Z,17.23
2018-07-05T23:48:21.842Z,17.82
2018-07-05T23:58:25.498Z,19.30
2018-07-05T23:59:22.136Z,18.90
